Details From MUHA - Havana Jose Marti Intl
To KEYW - Key West Intl
Flight Number -
Tags decoded
Created
Modified
Stats Distance 244 nm / 451 km
Max Altitude 0 ft / 0 m
Waypoints 9
Social Downloads 3
Likes 0
Share VATSIM

Download

Looking for another format? Having issues loading an existing format? Contact us
Advertisement - Login to hide

Notes

Requested: MUHA UVA TADPO VRGAS MTH EYW STING STRAP KEYW

Route

MUHA UVA TADPO VRGAS MTH EYW STING STRAP KEYW

ID Type Via Altitude Latitude Longitude Leg Dist Tot Dist Heading (true) Name
O MUHA APT - 0 ft / 0 m 22.98915˚ -82.40909˚ - 0 nm - Havana Jose Marti Intl
UVA VOR - 0 ft / 0 m 23.02469˚ -81.45358˚ 52 nm 52 nm 87° / 88° VARDER VOR-DME
TADPO FIX - 0 ft / 0 m 24.00044˚ -81.21700˚ 60 nm 112 nm 12° / 13° -
VRGAS FIX - 0 ft / 0 m 24.46417˚ -81.13222˚ 28 nm 141 nm 9° / 9° -
MTH NDB - 0 ft / 0 m 24.71189˚ -81.09531˚ 15 nm 156 nm 8° / 8° MARATHON NDB
EYW VOR - 0 ft / 0 m 24.58589˚ -81.80047˚ 39 nm 195 nm 259° / 259° KEY WEST VORTAC
STING FIX - 0 ft / 0 m 24.88158˚ -81.79631˚ 17 nm 213 nm 1° / 1° -
STRAP FIX - 0 ft / 0 m 24.83194˚ -81.58969˚ 11 nm 224 nm 105° / 105° -
O KEYW APT - 0 ft / 0 m 24.55612˚ -81.75955˚ 18 nm 243 nm 209° / 209° Key West Intl

Altitude Profile

Advertisement - Login to hide

Weather


0- 5 10 15 20 25 30 35+ Temperature / ° C

Clouds and Precipitation
Forecast for 2018-05-27 00:00 UTC. Updated 3 hours ago

Ground ~20,000 ft ~40,000 ft Winds

MUHA

Details ICAO MUHA (HAV)
Name Havana Jose Marti Intl
Region Cuba
Timezone America/Havana (UTC-4.0)
Stats Elevation 209 ft / 64 m (AMSL)
Location 22.989154° -82.409086°
Runways 1
Magnetic Variation 4.960° W

METAR

MUHA 270155Z 16010KT 8000 SCT008 OVC046 24/23 Q1006

Decode

TAF

Not found

Departure Runways

ID Width Length Bearing (true) Bearing (mag) Surface Threshold Offset Overrun Length
06 148 ft / 45 m 13,133 ft / 4,003 m 54.21° 59.17° Asphalt 0 ft / 0 m 476 ft / 145 m
24 148 ft / 45 m 13,133 ft / 4,003 m 234.23° 239.19° Asphalt 0 ft / 0 m 197 ft / 60 m

KEYW

Details ICAO KEYW (EYW)
Name Key West Intl
Region United States
Timezone America/New_York (UTC-4.0)
Stats Elevation 2 ft / 1 m (AMSL)
Location 24.556124° -81.759546°
Runways 1
Magnetic Variation 5.594° W

METAR

KEYW 270217Z AUTO 13021G30KT 6SM RA BR FEW014 BKN035 OVC075 25/25 A2975 RMK AO2 PK WND 13031/0154 P0002 T02500250

Decode

TAF

KEYW 262337Z 2700/2724 13023G36KT P6SM -RA VCSH SCT020 BKN030 OVC060 TEMPO 2700/2703 2SM +SHRA BKN015 OVC030 FM270300 15025G34KT 3SM RA VCTS SCT010CB BKN030 OVC060 TEMPO 2703/2706 1SM +TSRA BKN010CB OVC025 FM270900 18030G39KT 5SM -RA SCT012 OVC025 FM271500 17020G27KT P6SM VCSH SCT015 BKN050

Decode

Destination Runways

ID Width Length Bearing (true) Bearing (mag) Surface Threshold Offset Overrun Length
09 100 ft / 30 m 4,794 ft / 1,461 m 89.38° 94.97° Asphalt 151 ft / 46 m 0 ft / 0 m
27 100 ft / 30 m 4,794 ft / 1,461 m 269.39° 274.98° Asphalt 151 ft / 46 m 0 ft / 0 m

Popular Alternatives